Schenectady, NY (12301)

3:33 AM EST on February 14, 2016 (GMT -0500)
Stockade | | Change Station
CLOSE
Current Station
Personal Weather Station
Location: Schenectady, NY
Elevation: 249 ft
Nearby Weather Stations
Active Advisory: Wind Chill Warning

Elev 249 ft 42.82 °N, 73.95 °W | Updated 12 seconds ago

Clear
Clear
-10.1 °F
Feels Like -22 °F
N
5.0
Wind Variable Wind from WNW
Gusts 11.0 mph

Today
High -- | Low -- °F
--% Chance of Precip.
Yesterday
High -- | Low -- °F
Precip. -- in
Pressure 30.43 in
Visibility 10.0 miles
Clouds Clear
Windchill -22 °F
Dew Point -26 °F
Humidity 44%
Rainfall 0.00 in
Snow Depth Not available.
6:55 AM 5:25 PM
Waxing Crescent, 39% visible
METAR KALB 140751Z 31012KT 10SM CLR M24/M33 A3040 RMK AO2 SLP303 T12391328
Pressure 30.43 in
Visibility 10.0 miles
Clouds Clear
Windchill -22 °F
Dew Point -26 °F
Humidity 44%
Rainfall 0.00 in
Snow Depth Not available.
6:55 AM 5:25 PM
Waxing Crescent, 39% visible
METAR KALB 140751Z 31012KT 10SM CLR M24/M33 A3040 RMK AO2 SLP303 T12391328

10-Day Weather Forecast

Almanac

Astronomy

Feb. 14, 2016 Rise Set
Actual Time
Civil Twilight
Nautical Twilight
Astronomical Twilight
Moon
Length of Visible Light
Length of Day
Tomorrow will be .
, % of the Moon is Illuminated

Today's Extremes

State Highs State Lows

Community

WunderPhotos

Upload Photos

1,892,757 photos uploaded!

WunderBlog® & News

Nearby

Air Quality

  Air Quality AQ Index Pollutant
Not available.

Snow Depth

Station Depth Elevation

Earthquake Activity

City Distance Mag. Time & Date
Minimum magnitude displayed is 2.5.

Coastal Water Temperatures

Place Temperature

Stations

Nearby Weather Stations

Station Location Temp. Windchill Dew Point Humidity Wind Precip. Elev Updated Type
                   

Watches & Warnings

Wind Chill Warning
Issued: 12:24 AM EST Feb. 14, 2016 – National Weather Service

... Wind chill warning remains in effect until 1 PM EST this
afternoon...

* locations... all of east central New York and western New
England.

* Hazard types... life threatening wind chills.

* Wind chill readings... 25 to 60 below zero at times. The coldest
wind chill values will be across the higher terrain of the
southern Adirondacks and southern Green Mountains.

* Timing... through early this afternoon... with the coldest wind
chill values this morning.

* Impacts... wind chills will reach life threatening levels. Frigid
temperatures will result in frozen and bursting
pipes... frostbite and hypothermia in a short amount of time.

* Winds... northwest 10 to 20 with gusts 30 mph.

* Temperatures... air temperatures 5 to 30 degrees below zero. The
coldest readings will be across the highest terrain of the
southern Adirondacks.

Precautionary/preparedness actions...

A wind chill warning means the combination of very cold air and
strong winds will create dangerously low wind chill values. This
will result in frost bite and lead to hypothermia or death if
precautions are not taken.